createdAt,value
2017-08-26T00:00:02.389Z,12.70
2017-08-26T00:02:35.553Z,12.50
2017-08-26T00:05:03.061Z,12.33
2017-08-26T00:07:30.582Z,13.07
2017-08-26T00:09:58.068Z,12.40
2017-08-26T00:12:25.552Z,13.67
2017-08-26T00:14:53.044Z,13.60
2017-08-26T00:17:20.544Z,12.60
2017-08-26T00:19:48.019Z,12.80
2017-08-26T00:22:15.523Z,12.60
2017-08-26T00:24:43.028Z,11.47
2017-08-26T00:27:11.994Z,12.50
2017-08-26T00:29:39.490Z,12.30
2017-08-26T00:32:07.003Z,12.00
2017-08-26T00:34:34.504Z,12.03
2017-08-26T00:37:02.019Z,12.70
2017-08-26T00:39:29.514Z,12.05
2017-08-26T00:41:57.024Z,12.53
2017-08-26T00:44:24.530Z,13.20
2017-08-26T00:46:52.019Z,12.30
2017-08-26T00:49:26.527Z,13.63
2017-08-26T00:51:54.027Z,14.00
2017-08-26T00:54:21.520Z,12.30
2017-08-26T00:56:49.021Z,11.83
2017-08-26T00:59:16.514Z,13.60
2017-08-26T01:01:44.025Z,13.68
2017-08-26T01:04:11.531Z,13.80
2017-08-26T01:06:39.027Z,14.20
2017-08-26T01:09:06.529Z,15.13
2017-08-26T01:11:34.792Z,13.90
2017-08-26T01:14:02.298Z,12.47
2017-08-26T01:16:29.799Z,13.40
2017-08-26T01:18:57.306Z,12.80
2017-08-26T01:21:25.983Z,13.47
2017-08-26T01:23:53.506Z,12.27
2017-08-26T01:26:21.008Z,12.50
2017-08-26T01:28:48.507Z,11.30
2017-08-26T01:31:16.041Z,13.30
2017-08-26T01:33:43.528Z,13.30
2017-08-26T01:36:11.051Z,12.97
2017-08-26T01:38:38.553Z,13.50
2017-08-26T01:41:06.081Z,13.80
2017-08-26T01:43:33.592Z,12.67
2017-08-26T01:46:01.871Z,13.70
2017-08-26T01:48:30.113Z,12.40
2017-08-26T01:50:57.614Z,12.97
2017-08-26T01:53:25.106Z,12.60
2017-08-26T01:55:52.624Z,12.47
2017-08-26T01:58:20.103Z,13.07
2017-08-26T02:00:47.601Z,12.50
2017-08-26T02:03:15.091Z,12.77
2017-08-26T02:05:43.377Z,13.80
2017-08-26T02:08:10.857Z,14.02
2017-08-26T02:10:38.362Z,11.73
2017-08-26T02:13:05.854Z,12.93
2017-08-26T02:15:33.351Z,12.20
2017-08-26T02:18:00.841Z,13.40
2017-08-26T02:20:28.367Z,12.93
2017-08-26T02:22:55.854Z,13.30
2017-08-26T02:25:23.342Z,13.17
2017-08-26T02:27:50.841Z,12.13
2017-08-26T02:30:18.358Z,12.57
2017-08-26T02:32:45.865Z,12.67
2017-08-26T02:35:13.610Z,13.00
2017-08-26T02:37:41.106Z,13.93
2017-08-26T02:40:09.248Z,14.33
2017-08-26T02:42:36.755Z,14.27
2017-08-26T02:45:04.235Z,12.70
2017-08-26T02:47:32.500Z,13.23
2017-08-26T02:50:00.758Z,12.30
2017-08-26T02:52:28.269Z,12.83
2017-08-26T02:54:55.750Z,12.17
2017-08-26T02:57:23.238Z,12.30
2017-08-26T02:59:50.728Z,13.20
2017-08-26T03:02:19.166Z,12.30
2017-08-26T03:04:46.668Z,12.70
2017-08-26T03:07:14.168Z,12.30
2017-08-26T03:09:41.646Z,12.70
2017-08-26T03:12:09.139Z,12.60
2017-08-26T03:14:36.632Z,13.20
2017-08-26T03:17:04.150Z,11.97
2017-08-26T03:19:31.634Z,12.27
2017-08-26T03:21:59.142Z,11.60
2017-08-26T03:24:26.654Z,12.00
2017-08-26T03:26:54.153Z,12.65
2017-08-26T03:29:21.644Z,13.60
2017-08-26T03:31:49.158Z,13.70
2017-08-26T03:34:16.676Z,13.70
2017-08-26T03:36:44.175Z,13.10
2017-08-26T03:39:11.779Z,12.90
2017-08-26T03:41:39.280Z,13.53
2017-08-26T03:44:06.791Z,13.03
2017-08-26T03:46:34.303Z,12.10
2017-08-26T03:49:01.815Z,13.67
2017-08-26T03:51:29.311Z,12.90
2017-08-26T03:53:56.805Z,13.37
2017-08-26T03:56:24.298Z,12.67
2017-08-26T03:58:51.806Z,13.50
2017-08-26T04:01:19.305Z,14.57
2017-08-26T04:03:46.808Z,13.07
2017-08-26T04:06:14.320Z,14.20
2017-08-26T04:08:41.819Z,12.30
2017-08-26T04:11:09.345Z,13.17
2017-08-26T04:13:36.845Z,12.07
2017-08-26T04:16:04.335Z,13.33
2017-08-26T04:18:31.833Z,12.77
2017-08-26T04:20:59.336Z,12.40
2017-08-26T04:23:26.838Z,13.40
2017-08-26T04:25:54.346Z,13.67
2017-08-26T04:28:21.847Z,12.10
2017-08-26T04:30:49.345Z,12.50
2017-08-26T04:33:16.844Z,12.52
2017-08-26T04:35:45.127Z,12.37
2017-08-26T04:38:13.260Z,12.80
2017-08-26T04:40:40.757Z,13.37
2017-08-26T04:43:08.233Z,12.77
2017-08-26T04:45:35.739Z,11.37
2017-08-26T04:48:03.247Z,12.27
2017-08-26T04:50:30.769Z,12.00
2017-08-26T04:52:58.278Z,13.47
2017-08-26T04:55:25.804Z,12.82
2017-08-26T04:57:59.710Z,13.47
2017-08-26T05:00:28.011Z,13.10
2017-08-26T05:02:55.504Z,13.83
2017-08-26T05:05:23.007Z,13.77
2017-08-26T05:07:50.532Z,12.50
2017-08-26T05:10:18.026Z,12.23
2017-08-26T05:12:45.538Z,12.67
2017-08-26T05:15:13.026Z,12.03
2017-08-26T05:17:40.771Z,12.00
2017-08-26T05:20:08.273Z,12.57
2017-08-26T05:22:35.792Z,12.33
2017-08-26T05:25:03.286Z,11.97
2017-08-26T05:27:30.794Z,12.70
2017-08-26T05:29:58.278Z,12.03
2017-08-26T05:32:25.796Z,12.53
2017-08-26T05:34:53.278Z,12.37
2017-08-26T05:37:20.790Z,11.10
2017-08-26T05:39:48.304Z,12.53
2017-08-26T05:42:15.814Z,12.87
2017-08-26T05:44:43.320Z,12.33
2017-08-26T05:47:10.815Z,9.50
2017-08-26T05:49:38.311Z,9.07
2017-08-26T05:52:05.792Z,8.13
2017-08-26T05:54:33.293Z,8.43
2017-08-26T05:57:00.771Z,8.33
2017-08-26T05:59:28.266Z,8.87
2017-08-26T06:01:55.752Z,9.10
2017-08-26T06:04:24.032Z,9.23
2017-08-26T06:06:51.530Z,8.20
2017-08-26T06:09:19.042Z,8.90
2017-08-26T06:11:46.549Z,9.20
2017-08-26T06:14:14.065Z,9.30
2017-08-26T06:16:42.314Z,9.97
2017-08-26T06:19:09.814Z,9.30
2017-08-26T06:21:37.316Z,10.03
2017-08-26T06:24:04.829Z,10.30
2017-08-26T06:26:32.327Z,10.32
2017-08-26T06:28:59.814Z,10.33
2017-08-26T06:31:27.344Z,9.03
2017-08-26T06:33:54.834Z,9.52
2017-08-26T06:36:22.314Z,8.93
2017-08-26T06:38:56.032Z,8.10
2017-08-26T06:41:23.533Z,7.00
2017-08-26T06:43:51.036Z,6.50
2017-08-26T06:46:18.543Z,6.93
2017-08-26T06:48:46.020Z,6.50
2017-08-26T06:51:13.516Z,7.00
2017-08-26T06:53:42.883Z,5.57
2017-08-26T06:56:10.400Z,6.22
2017-08-26T06:58:37.890Z,6.77
2017-08-26T07:01:11.237Z,6.47
2017-08-26T07:03:39.503Z,5.83
2017-08-26T07:06:07.019Z,6.45
2017-08-26T07:08:34.510Z,4.87
2017-08-26T07:11:02.025Z,5.67
2017-08-26T07:13:29.527Z,5.70
2017-08-26T07:15:57.823Z,5.30
2017-08-26T07:18:25.307Z,5.73
2017-08-26T07:20:52.817Z,6.10
2017-08-26T07:23:21.121Z,5.60
2017-08-26T07:25:48.629Z,5.67
2017-08-26T07:28:16.115Z,6.18
2017-08-26T07:30:43.608Z,5.80
2017-08-26T07:33:11.094Z,5.50
2017-08-26T07:35:38.626Z,5.80
2017-08-26T07:38:06.113Z,5.90
2017-08-26T07:40:33.608Z,5.77
2017-08-26T07:43:01.877Z,6.13
2017-08-26T07:45:30.146Z,6.33
2017-08-26T07:47:57.664Z,6.40
2017-08-26T07:50:25.143Z,6.87
2017-08-26T07:52:52.633Z,6.00
2017-08-26T07:55:20.897Z,6.40
2017-08-26T07:57:49.151Z,6.53
2017-08-26T08:00:16.636Z,7.30
2017-08-26T08:02:44.135Z,6.20
2017-08-26T08:05:11.648Z,6.80
2017-08-26T08:07:39.897Z,6.28
2017-08-26T08:10:07.396Z,5.57
2017-08-26T08:12:34.894Z,6.37
2017-08-26T08:15:02.389Z,6.53
2017-08-26T08:17:29.878Z,6.40
2017-08-26T08:19:57.379Z,6.70
2017-08-26T08:22:24.862Z,7.67
2017-08-26T08:24:52.356Z,6.43
2017-08-26T08:27:26.119Z,6.53
2017-08-26T08:29:53.618Z,6.40
2017-08-26T08:32:21.129Z,6.07
2017-08-26T08:34:48.635Z,6.53
2017-08-26T08:37:16.135Z,6.28
2017-08-26T08:39:43.632Z,6.27
2017-08-26T08:42:11.108Z,6.73
2017-08-26T08:44:38.602Z,6.03
2017-08-26T08:47:06.114Z,6.75
2017-08-26T08:49:33.618Z,6.40
2017-08-26T08:52:01.088Z,6.00
2017-08-26T08:54:28.582Z,7.00
2017-08-26T08:56:56.084Z,6.05
2017-08-26T08:59:23.580Z,5.63
2017-08-26T09:01:51.087Z,6.07
2017-08-26T09:04:18.572Z,6.00
2017-08-26T09:06:46.067Z,5.33
2017-08-26T09:09:14.306Z,5.95
2017-08-26T09:11:41.821Z,5.47
2017-08-26T09:14:09.303Z,4.90
2017-08-26T09:16:36.815Z,6.00
2017-08-26T09:19:04.305Z,5.47
2017-08-26T09:21:31.814Z,5.87
2017-08-26T09:24:00.222Z,5.60
2017-08-26T09:26:27.720Z,5.63
2017-08-26T09:29:01.900Z,6.00
2017-08-26T09:31:30.166Z,5.27
2017-08-26T09:33:57.697Z,5.60
2017-08-26T09:36:25.214Z,5.37
2017-08-26T09:38:52.699Z,5.60
2017-08-26T09:41:20.206Z,6.00
2017-08-26T09:43:47.679Z,5.33
2017-08-26T09:46:15.164Z,5.40
2017-08-26T09:48:42.679Z,6.00
2017-08-26T09:51:10.181Z,6.00
2017-08-26T09:53:37.671Z,5.40
2017-08-26T09:56:05.157Z,6.37
2017-08-26T09:58:34.361Z,6.20
2017-08-26T10:01:01.841Z,5.70
2017-08-26T10:03:29.329Z,6.25
2017-08-26T10:05:56.834Z,6.07
2017-08-26T10:08:24.326Z,6.00
2017-08-26T10:10:51.803Z,6.27
2017-08-26T10:13:19.312Z,7.00
2017-08-26T10:15:47.135Z,6.07
2017-08-26T10:18:14.636Z,5.70
2017-08-26T10:20:42.105Z,5.57
2017-08-26T10:23:09.590Z,5.77
2017-08-26T10:25:37.079Z,6.07
2017-08-26T10:28:04.605Z,6.17
2017-08-26T10:30:32.092Z,6.30
2017-08-26T10:32:59.579Z,7.03
2017-08-26T10:35:27.080Z,7.23
2017-08-26T10:37:54.574Z,7.10
2017-08-26T10:40:22.072Z,7.20
2017-08-26T10:42:49.571Z,7.13
2017-08-26T10:45:17.089Z,6.80
2017-08-26T10:47:44.575Z,8.50
2017-08-26T10:50:12.082Z,6.60
2017-08-26T10:52:39.566Z,7.00
2017-08-26T10:55:07.090Z,8.30
2017-08-26T10:57:34.574Z,7.80
2017-08-26T11:00:02.061Z,7.50
2017-08-26T11:02:29.567Z,7.40
2017-08-26T11:04:57.837Z,6.47
2017-08-26T11:07:25.327Z,7.20
2017-08-26T11:09:52.804Z,6.43
2017-08-26T11:12:26.784Z,7.20
2017-08-26T11:14:54.276Z,6.63
2017-08-26T11:17:21.782Z,7.10
2017-08-26T11:19:49.263Z,12.80
2017-08-26T11:22:16.756Z,9.13
2017-08-26T11:24:44.269Z,17.40
2017-08-26T11:27:11.757Z,6.80
2017-08-26T11:29:39.232Z,7.47
2017-08-26T11:32:06.730Z,6.72
2017-08-26T11:34:34.976Z,7.30
2017-08-26T11:37:02.472Z,21.20
2017-08-26T11:39:29.976Z,10.30
2017-08-26T11:41:57.469Z,9.30
2017-08-26T11:44:24.971Z,7.47
2017-08-26T11:46:52.461Z,7.40
2017-08-26T11:49:26.521Z,7.63
2017-08-26T11:51:54.026Z,7.10
2017-08-26T11:54:21.520Z,6.50
2017-08-26T11:56:49.029Z,7.00
2017-08-26T11:59:16.507Z,7.07
2017-08-26T12:01:44.020Z,6.83
2017-08-26T12:04:12.304Z,7.35
2017-08-26T12:06:39.885Z,7.07
2017-08-26T12:09:07.375Z,7.47
2017-08-26T12:11:34.891Z,7.03
2017-08-26T12:14:02.371Z,5.77
2017-08-26T12:16:29.853Z,5.85
2017-08-26T12:18:57.339Z,5.37
2017-08-26T12:21:24.832Z,5.83
2017-08-26T12:23:52.339Z,6.27
2017-08-26T12:26:19.816Z,5.70
2017-08-26T12:28:47.314Z,5.90
2017-08-26T12:31:14.798Z,5.83
2017-08-26T12:33:42.292Z,6.10
2017-08-26T12:36:09.788Z,5.97
2017-08-26T12:38:37.288Z,5.23
2017-08-26T12:41:04.772Z,5.93
2017-08-26T12:43:32.275Z,6.10
2017-08-26T12:45:59.771Z,5.90
2017-08-26T12:48:27.269Z,6.57
2017-08-26T12:50:54.767Z,6.20
2017-08-26T12:53:22.296Z,6.10
2017-08-26T12:55:49.794Z,5.33
2017-08-26T12:58:18.043Z,5.73
2017-08-26T13:00:45.543Z,5.28
2017-08-26T13:03:13.031Z,5.63
2017-08-26T13:05:40.534Z,5.50
2017-08-26T13:08:08.015Z,6.20
2017-08-26T13:10:35.515Z,6.00
2017-08-26T13:13:03.007Z,6.03
2017-08-26T13:15:30.510Z,5.60
2017-08-26T13:17:57.994Z,6.20
2017-08-26T13:20:25.491Z,5.60
2017-08-26T13:22:52.977Z,5.83
2017-08-26T13:25:20.471Z,5.60
2017-08-26T13:27:47.937Z,6.00
2017-08-26T13:30:15.434Z,5.37
2017-08-26T13:32:42.916Z,5.90
2017-08-26T13:35:10.428Z,5.05
2017-08-26T13:37:37.925Z,5.10
2017-08-26T13:40:05.434Z,5.43
2017-08-26T13:42:32.920Z,4.93
2017-08-26T13:45:01.252Z,5.60
2017-08-26T13:47:28.754Z,6.53
2017-08-26T13:49:56.230Z,5.25
2017-08-26T13:52:24.273Z,4.87
2017-08-26T13:54:51.751Z,5.37
2017-08-26T13:57:19.259Z,5.40
2017-08-26T13:59:46.756Z,5.27
2017-08-26T14:02:14.248Z,5.80
2017-08-26T14:04:41.733Z,5.03
2017-08-26T14:07:09.264Z,5.50
2017-08-26T14:09:36.759Z,6.03
2017-08-26T14:12:04.255Z,5.20
2017-08-26T14:14:31.738Z,4.70
2017-08-26T14:16:59.240Z,4.57
2017-08-26T14:19:26.730Z,5.03
2017-08-26T14:21:54.229Z,4.13
2017-08-26T14:24:21.727Z,5.00
2017-08-26T14:26:49.231Z,5.30
2017-08-26T14:29:16.714Z,5.70
2017-08-26T14:31:44.210Z,5.47
2017-08-26T14:34:11.679Z,5.50
2017-08-26T14:36:39.203Z,5.45
2017-08-26T14:39:06.671Z,6.67
2017-08-26T14:41:34.141Z,6.60
2017-08-26T14:44:02.410Z,7.30
2017-08-26T14:46:29.891Z,7.23
2017-08-26T14:48:57.392Z,7.73
2017-08-26T14:51:24.895Z,7.87
2017-08-26T14:53:53.159Z,7.60
2017-08-26T14:56:20.644Z,7.30
2017-08-26T14:58:48.142Z,7.93
2017-08-26T15:01:15.631Z,9.10
2017-08-26T15:03:43.208Z,8.02
2017-08-26T15:06:11.796Z,7.50
2017-08-26T15:08:39.293Z,8.27
2017-08-26T15:11:06.785Z,8.33
2017-08-26T15:13:34.291Z,7.30
2017-08-26T15:16:01.772Z,7.80
2017-08-26T15:18:29.248Z,8.00
2017-08-26T15:20:56.722Z,7.60
2017-08-26T15:23:24.239Z,8.30
2017-08-26T15:25:51.734Z,7.87
2017-08-26T15:28:19.208Z,7.70
2017-08-26T15:30:46.711Z,7.30
2017-08-26T15:33:14.186Z,7.70
2017-08-26T15:35:41.678Z,7.33
2017-08-26T15:38:09.926Z,7.87
2017-08-26T15:40:37.414Z,9.10
2017-08-26T15:43:04.882Z,7.80
2017-08-26T15:45:33.151Z,7.70
2017-08-26T15:48:01.419Z,7.90
2017-08-26T15:50:28.910Z,7.63
2017-08-26T15:52:56.415Z,7.73
2017-08-26T15:55:23.903Z,7.63
2017-08-26T15:57:51.403Z,7.45
2017-08-26T16:00:18.895Z,7.43
2017-08-26T16:02:46.419Z,7.80
2017-08-26T16:05:13.969Z,8.17
2017-08-26T16:07:41.460Z,8.10
2017-08-26T16:10:08.951Z,7.78
2017-08-26T16:12:36.434Z,8.10
2017-08-26T16:15:03.926Z,8.27
2017-08-26T16:17:31.411Z,7.77
2017-08-26T16:19:58.902Z,8.20
2017-08-26T16:22:26.381Z,7.90
2017-08-26T16:24:53.863Z,8.00
2017-08-26T16:27:21.378Z,7.77
2017-08-26T16:29:48.890Z,7.83
2017-08-26T16:32:16.374Z,7.37
2017-08-26T16:34:43.884Z,8.13
2017-08-26T16:37:11.371Z,8.00
2017-08-26T16:39:38.834Z,7.83
2017-08-26T16:42:06.322Z,7.70
2017-08-26T16:44:33.802Z,6.90
2017-08-26T16:47:01.318Z,7.90
2017-08-26T16:49:29.575Z,8.03
2017-08-26T16:51:57.079Z,7.20
2017-08-26T16:54:25.187Z,7.27
2017-08-26T16:56:52.687Z,7.03
2017-08-26T16:59:20.174Z,7.50
2017-08-26T17:01:47.675Z,7.07
2017-08-26T17:04:15.162Z,7.17
2017-08-26T17:06:43.439Z,7.57
2017-08-26T17:09:11.697Z,7.93
2017-08-26T17:11:39.198Z,7.60
2017-08-26T17:14:06.678Z,7.60
2017-08-26T17:16:34.321Z,7.97
2017-08-26T17:19:01.805Z,7.43
2017-08-26T17:21:29.311Z,7.67
2017-08-26T17:23:56.799Z,7.70
2017-08-26T17:26:24.319Z,7.50
2017-08-26T17:28:51.806Z,8.63
2017-08-26T17:31:19.292Z,8.00
2017-08-26T17:33:46.803Z,8.37
2017-08-26T17:36:14.281Z,8.77
2017-08-26T17:38:42.378Z,8.52
2017-08-26T17:41:09.892Z,7.77
2017-08-26T17:43:38.160Z,7.83
2017-08-26T17:46:05.654Z,8.53
2017-08-26T17:48:33.179Z,7.97
2017-08-26T17:51:00.670Z,8.87
2017-08-26T17:53:28.165Z,8.33
2017-08-26T17:55:55.647Z,8.37
2017-08-26T17:58:23.136Z,8.57
2017-08-26T18:00:52.078Z,7.57
2017-08-26T18:03:19.583Z,7.43
2017-08-26T18:05:47.071Z,8.00
2017-08-26T18:08:14.568Z,8.50
2017-08-26T18:10:42.061Z,8.67
2017-08-26T18:13:09.569Z,7.68
2017-08-26T18:15:37.046Z,8.50
2017-08-26T18:18:04.542Z,9.40
2017-08-26T18:20:32.057Z,15.00
2017-08-26T18:23:00.325Z,14.57
2017-08-26T18:25:27.857Z,12.30
2017-08-26T18:27:55.374Z,12.50
2017-08-26T18:30:22.870Z,12.40
2017-08-26T18:32:50.358Z,11.33
2017-08-26T18:35:18.025Z,10.57
2017-08-26T18:37:45.512Z,10.57
2017-08-26T18:40:13.027Z,12.33
2017-08-26T18:42:40.518Z,14.73
2017-08-26T18:45:11.091Z,15.80
2017-08-26T18:47:38.599Z,18.50
2017-08-26T18:50:06.109Z,16.43
2017-08-26T18:52:33.598Z,12.33
2017-08-26T18:55:01.113Z,10.03
2017-08-26T18:57:28.601Z,8.90
2017-08-26T18:59:56.194Z,8.70
2017-08-26T19:02:23.693Z,9.17
2017-08-26T19:04:51.183Z,8.30
2017-08-26T19:07:18.680Z,9.73
2017-08-26T19:09:46.942Z,8.97
2017-08-26T19:12:14.436Z,9.70
2017-08-26T19:14:41.960Z,9.10
2017-08-26T19:17:10.211Z,9.80
2017-08-26T19:19:37.708Z,9.75
2017-08-26T19:22:05.210Z,8.50
2017-08-26T19:24:32.703Z,10.23
2017-08-26T19:27:00.205Z,9.25
2017-08-26T19:29:27.709Z,9.70
2017-08-26T19:31:55.226Z,8.90
2017-08-26T19:34:22.731Z,9.93
2017-08-26T19:36:50.239Z,9.40
2017-08-26T19:39:17.735Z,9.20
2017-08-26T19:41:45.234Z,8.20
2017-08-26T19:44:12.725Z,8.47
2017-08-26T19:46:40.229Z,8.47
2017-08-26T19:49:08.475Z,8.53
2017-08-26T19:51:36.412Z,9.30
2017-08-26T19:54:03.909Z,9.23
2017-08-26T19:56:31.423Z,9.00
2017-08-26T19:58:58.924Z,8.30
2017-08-26T20:01:26.417Z,10.17
2017-08-26T20:03:53.913Z,9.63
2017-08-26T20:06:21.418Z,12.60
2017-08-26T20:08:48.899Z,12.70
2017-08-26T20:11:16.398Z,9.43
2017-08-26T20:13:43.924Z,9.77
2017-08-26T20:16:11.881Z,9.70
2017-08-26T20:18:39.378Z,11.10
2017-08-26T20:21:06.861Z,10.30
2017-08-26T20:36:31.648Z,9.43
2017-08-26T20:38:59.126Z,8.90
2017-08-26T20:41:26.625Z,9.73
2017-08-26T20:43:54.124Z,12.67
2017-08-26T20:46:21.617Z,9.40
2017-08-26T20:48:49.135Z,9.20
2017-08-26T20:51:16.643Z,12.80
2017-08-26T20:53:44.152Z,14.23
2017-08-26T20:56:11.640Z,11.57
2017-08-26T20:58:39.132Z,12.33
2017-08-26T21:01:06.632Z,13.47
2017-08-26T21:03:34.124Z,12.50
2017-08-26T21:06:01.643Z,13.00
2017-08-26T21:08:29.118Z,10.40
2017-08-26T21:10:56.624Z,11.47
2017-08-26T21:13:24.115Z,10.53
2017-08-26T21:15:51.603Z,10.60
2017-08-26T21:18:19.326Z,10.15
2017-08-26T21:20:46.826Z,9.20
2017-08-26T21:23:14.377Z,10.23
2017-08-26T21:25:41.895Z,10.20
2017-08-26T21:28:09.390Z,10.20
2017-08-26T21:30:36.905Z,10.00
2017-08-26T21:33:04.395Z,9.23
2017-08-26T21:35:31.940Z,10.57
2017-08-26T21:37:59.432Z,9.97
2017-08-26T21:40:26.921Z,11.10
2017-08-26T21:42:54.418Z,10.73
2017-08-26T21:45:21.898Z,10.03
2017-08-26T21:47:49.403Z,11.20
2017-08-26T21:50:16.883Z,11.07
2017-08-26T21:52:44.377Z,11.43
2017-08-26T21:55:11.855Z,10.53
2017-08-26T21:57:39.338Z,11.17
2017-08-26T22:00:06.820Z,11.30
2017-08-26T22:02:34.330Z,12.00
2017-08-26T22:05:01.814Z,12.37
2017-08-26T22:07:29.332Z,12.40
2017-08-26T22:09:56.822Z,11.20
2017-08-26T22:12:24.319Z,10.07
2017-08-26T22:14:51.812Z,9.88
2017-08-26T22:17:19.301Z,9.50
2017-08-26T22:19:47.746Z,11.30
2017-08-26T22:22:15.242Z,10.83
2017-08-26T22:24:42.734Z,10.93
2017-08-26T22:27:10.247Z,10.38
2017-08-26T22:29:37.730Z,10.30
2017-08-26T22:32:05.276Z,11.15
2017-08-26T22:34:32.772Z,10.60
2017-08-26T22:37:00.256Z,10.40
2017-08-26T22:39:27.767Z,10.90
2017-08-26T22:41:55.253Z,11.30
2017-08-26T22:44:22.751Z,10.50
2017-08-26T22:46:51.086Z,10.63
2017-08-26T22:49:18.580Z,11.03
2017-08-26T22:51:46.063Z,10.83
2017-08-26T22:54:13.545Z,10.80
2017-08-26T22:56:41.028Z,10.73
2017-08-26T22:59:09.288Z,11.20
2017-08-26T23:01:36.775Z,11.10
2017-08-26T23:04:05.030Z,12.03
2017-08-26T23:06:32.528Z,11.40
2017-08-26T23:09:00.045Z,10.10
2017-08-26T23:11:27.540Z,11.00
2017-08-26T23:13:55.054Z,11.37
2017-08-26T23:16:22.534Z,10.50
2017-08-26T23:18:50.031Z,11.00
2017-08-26T23:21:23.315Z,10.90
2017-08-26T23:23:50.789Z,10.20
2017-08-26T23:26:18.292Z,11.10
2017-08-26T23:28:45.783Z,11.30
2017-08-26T23:31:13.277Z,10.88
2017-08-26T23:33:40.781Z,10.83
2017-08-26T23:36:08.282Z,10.93
2017-08-26T23:38:35.775Z,10.83
2017-08-26T23:41:03.281Z,10.25
2017-08-26T23:43:30.770Z,10.20
2017-08-26T23:45:58.276Z,11.27
2017-08-26T23:48:25.764Z,10.67
2017-08-26T23:50:53.269Z,10.70
2017-08-26T23:53:20.750Z,10.20
2017-08-26T23:55:49.030Z,10.10
2017-08-26T23:58:16.582Z,10.97
